sensor_id;sensor_type;location;lat;lon;timestamp;P1;durP1;ratioP1;P2;durP2;ratioP2
70725;SDS011;58304;53.104;6.022;2023-05-07T00:00:16;13.50;;;8.45;;
70725;SDS011;58304;53.104;6.022;2023-05-07T00:02:45;12.75;;;8.30;;
70725;SDS011;58304;53.104;6.022;2023-05-07T00:05:14;15.18;;;8.82;;
70725;SDS011;58304;53.104;6.022;2023-05-07T00:07:40;14.25;;;9.07;;
70725;SDS011;58304;53.104;6.022;2023-05-07T00:10:05;12.77;;;8.43;;
70725;SDS011;58304;53.104;6.022;2023-05-07T00:12:32;13.55;;;8.57;;
70725;SDS011;58304;53.104;6.022;2023-05-07T00:15:01;12.88;;;8.20;;
70725;SDS011;58304;53.104;6.022;2023-05-07T00:17:28;13.82;;;8.85;;
70725;SDS011;58304;53.104;6.022;2023-05-07T00:19:54;17.92;;;8.90;;
70725;SDS011;58304;53.104;6.022;2023-05-07T00:22:21;14.10;;;8.52;;
70725;SDS011;58304;53.104;6.022;2023-05-07T00:24:50;15.90;;;8.98;;
70725;SDS011;58304;53.104;6.022;2023-05-07T00:27:20;19.77;;;9.32;;
70725;SDS011;58304;53.104;6.022;2023-05-07T00:29:55;14.50;;;8.75;;
70725;SDS011;58304;53.104;6.022;2023-05-07T00:32:27;15.38;;;9.02;;
70725;SDS011;58304;53.104;6.022;2023-05-07T00:34:56;15.00;;;8.63;;
70725;SDS011;58304;53.104;6.022;2023-05-07T00:37:24;14.70;;;9.13;;
70725;SDS011;58304;53.104;6.022;2023-05-07T00:39:50;14.95;;;9.48;;
70725;SDS011;58304;53.104;6.022;2023-05-07T00:42:15;17.02;;;8.90;;
70725;SDS011;58304;53.104;6.022;2023-05-07T00:44:44;15.25;;;9.02;;
70725;SDS011;58304;53.104;6.022;2023-05-07T00:47:14;15.00;;;8.70;;
70725;SDS011;58304;53.104;6.022;2023-05-07T00:49:44;15.73;;;9.45;;
70725;SDS011;58304;53.104;6.022;2023-05-07T00:52:13;14.60;;;8.65;;
70725;SDS011;58304;53.104;6.022;2023-05-07T00:54:42;16.52;;;9.48;;
70725;SDS011;58304;53.104;6.022;2023-05-07T00:57:09;15.65;;;9.23;;
70725;SDS011;58304;53.104;6.022;2023-05-07T00:59:39;17.05;;;9.23;;
70725;SDS011;58304;53.104;6.022;2023-05-07T01:02:05;21.33;;;10.60;;
70725;SDS011;58304;53.104;6.022;2023-05-07T01:04:33;17.70;;;9.40;;
70725;SDS011;58304;53.104;6.022;2023-05-07T01:06:58;15.52;;;9.25;;
70725;SDS011;58304;53.104;6.022;2023-05-07T01:09:27;17.65;;;9.75;;
70725;SDS011;58304;53.104;6.022;2023-05-07T01:11:59;14.50;;;9.07;;
70725;SDS011;58304;53.104;6.022;2023-05-07T01:14:25;19.45;;;10.02;;
70725;SDS011;58304;53.104;6.022;2023-05-07T01:16:52;13.55;;;8.73;;
70725;SDS011;58304;53.104;6.022;2023-05-07T01:19:19;16.02;;;9.73;;
70725;SDS011;58304;53.104;6.022;2023-05-07T01:21:45;15.52;;;9.55;;
70725;SDS011;58304;53.104;6.022;2023-05-07T01:24:14;18.05;;;10.25;;
70725;SDS011;58304;53.104;6.022;2023-05-07T01:26:42;18.13;;;10.65;;
70725;SDS011;58304;53.104;6.022;2023-05-07T01:29:09;18.58;;;11.23;;
70725;SDS011;58304;53.104;6.022;2023-05-07T01:31:36;16.85;;;10.25;;
70725;SDS011;58304;53.104;6.022;2023-05-07T01:34:04;18.63;;;10.60;;
70725;SDS011;58304;53.104;6.022;2023-05-07T01:36:33;19.50;;;10.63;;
70725;SDS011;58304;53.104;6.022;2023-05-07T01:39:02;17.92;;;10.50;;
70725;SDS011;58304;53.104;6.022;2023-05-07T01:41:27;20.00;;;11.20;;
70725;SDS011;58304;53.104;6.022;2023-05-07T01:43:55;16.17;;;10.10;;
70725;SDS011;58304;53.104;6.022;2023-05-07T01:46:26;18.38;;;10.57;;
70725;SDS011;58304;53.104;6.022;2023-05-07T01:48:58;23.33;;;11.43;;
70725;SDS011;58304;53.104;6.022;2023-05-07T01:51:34;18.85;;;11.65;;
70725;SDS011;58304;53.104;6.022;2023-05-07T01:54:00;19.30;;;11.23;;
70725;SDS011;58304;53.104;6.022;2023-05-07T01:56:26;21.10;;;11.80;;
70725;SDS011;58304;53.104;6.022;2023-05-07T01:58:53;22.65;;;12.00;;
70725;SDS011;58304;53.104;6.022;2023-05-07T02:01:19;21.33;;;12.80;;
70725;SDS011;58304;53.104;6.022;2023-05-07T02:03:46;21.20;;;13.15;;
70725;SDS011;58304;53.104;6.022;2023-05-07T02:06:11;25.38;;;13.75;;
70725;SDS011;58304;53.104;6.022;2023-05-07T02:08:37;22.77;;;12.88;;
70725;SDS011;58304;53.104;6.022;2023-05-07T02:11:03;22.10;;;13.07;;
70725;SDS011;58304;53.104;6.022;2023-05-07T02:13:29;24.98;;;13.75;;
70725;SDS011;58304;53.104;6.022;2023-05-07T02:15:57;22.88;;;13.25;;
70725;SDS011;58304;53.104;6.022;2023-05-07T02:18:24;23.25;;;13.98;;
70725;SDS011;58304;53.104;6.022;2023-05-07T02:20:51;25.40;;;14.35;;
70725;SDS011;58304;53.104;6.022;2023-05-07T02:23:17;23.75;;;14.07;;
70725;SDS011;58304;53.104;6.022;2023-05-07T02:25:42;24.83;;;13.82;;
70725;SDS011;58304;53.104;6.022;2023-05-07T02:28:08;26.10;;;13.48;;
70725;SDS011;58304;53.104;6.022;2023-05-07T02:30:34;26.42;;;14.25;;
70725;SDS011;58304;53.104;6.022;2023-05-07T02:32:59;24.33;;;14.65;;
70725;SDS011;58304;53.104;6.022;2023-05-07T02:35:25;24.85;;;14.35;;
70725;SDS011;58304;53.104;6.022;2023-05-07T02:37:54;24.15;;;13.98;;
70725;SDS011;58304;53.104;6.022;2023-05-07T02:40:21;27.50;;;14.13;;
70725;SDS011;58304;53.104;6.022;2023-05-07T02:42:47;24.45;;;14.18;;
70725;SDS011;58304;53.104;6.022;2023-05-07T02:45:12;25.08;;;14.07;;
70725;SDS011;58304;53.104;6.022;2023-05-07T02:47:43;24.77;;;13.60;;
70725;SDS011;58304;53.104;6.022;2023-05-07T02:50:09;26.48;;;14.73;;
70725;SDS011;58304;53.104;6.022;2023-05-07T02:52:35;26.70;;;14.10;;
70725;SDS011;58304;53.104;6.022;2023-05-07T02:55:02;25.67;;;15.15;;
70725;SDS011;58304;53.104;6.022;2023-05-07T02:57:29;25.27;;;14.65;;
70725;SDS011;58304;53.104;6.022;2023-05-07T02:59:57;24.88;;;14.13;;
70725;SDS011;58304;53.104;6.022;2023-05-07T03:02:24;25.95;;;14.90;;
70725;SDS011;58304;53.104;6.022;2023-05-07T03:04:51;25.02;;;14.32;;
70725;SDS011;58304;53.104;6.022;2023-05-07T03:07:21;26.70;;;15.07;;
70725;SDS011;58304;53.104;6.022;2023-05-07T03:09:46;26.77;;;14.55;;
70725;SDS011;58304;53.104;6.022;2023-05-07T03:12:12;26.55;;;14.95;;
70725;SDS011;58304;53.104;6.022;2023-05-07T03:14:42;28.95;;;15.75;;
70725;SDS011;58304;53.104;6.022;2023-05-07T03:17:09;27.23;;;15.57;;
70725;SDS011;58304;53.104;6.022;2023-05-07T03:19:37;26.17;;;15.27;;
70725;SDS011;58304;53.104;6.022;2023-05-07T03:22:05;25.98;;;15.52;;
70725;SDS011;58304;53.104;6.022;2023-05-07T03:24:31;28.65;;;15.48;;
70725;SDS011;58304;53.104;6.022;2023-05-07T03:26:58;30.00;;;15.70;;
70725;SDS011;58304;53.104;6.022;2023-05-07T03:29:24;26.83;;;15.05;;
70725;SDS011;58304;53.104;6.022;2023-05-07T03:34:25;28.50;;;15.52;;
70725;SDS011;58304;53.104;6.022;2023-05-07T03:36:52;27.02;;;15.85;;
70725;SDS011;58304;53.104;6.022;2023-05-07T03:39:17;30.25;;;15.88;;
70725;SDS011;58304;53.104;6.022;2023-05-07T03:41:43;27.30;;;16.10;;
70725;SDS011;58304;53.104;6.022;2023-05-07T03:44:09;31.83;;;16.65;;
70725;SDS011;58304;53.104;6.022;2023-05-07T03:46:34;28.33;;;15.70;;
70725;SDS011;58304;53.104;6.022;2023-05-07T03:49:00;30.10;;;16.08;;
70725;SDS011;58304;53.104;6.022;2023-05-07T03:51:27;31.52;;;15.82;;
70725;SDS011;58304;53.104;6.022;2023-05-07T03:53:53;29.45;;;16.25;;
70725;SDS011;58304;53.104;6.022;2023-05-07T03:56:20;29.02;;;15.95;;
70725;SDS011;58304;53.104;6.022;2023-05-07T03:58:47;30.27;;;16.17;;
70725;SDS011;58304;53.104;6.022;2023-05-07T04:01:14;27.70;;;15.88;;
70725;SDS011;58304;53.104;6.022;2023-05-07T04:03:40;28.50;;;15.50;;
70725;SDS011;58304;53.104;6.022;2023-05-07T04:06:08;27.67;;;16.05;;
70725;SDS011;58304;53.104;6.022;2023-05-07T04:08:34;29.10;;;16.13;;
70725;SDS011;58304;53.104;6.022;2023-05-07T04:10:59;32.85;;;16.63;;
70725;SDS011;58304;53.104;6.022;2023-05-07T04:13:25;29.73;;;16.55;;
70725;SDS011;58304;53.104;6.022;2023-05-07T04:15:51;33.35;;;17.45;;
70725;SDS011;58304;53.104;6.022;2023-05-07T04:18:17;28.73;;;16.30;;
70725;SDS011;58304;53.104;6.022;2023-05-07T04:20:43;30.90;;;17.60;;
70725;SDS011;58304;53.104;6.022;2023-05-07T04:23:09;30.77;;;17.42;;
70725;SDS011;58304;53.104;6.022;2023-05-07T04:25:36;33.45;;;18.05;;
70725;SDS011;58304;53.104;6.022;2023-05-07T04:28:02;35.35;;;17.95;;
70725;SDS011;58304;53.104;6.022;2023-05-07T04:30:29;34.40;;;18.80;;
70725;SDS011;58304;53.104;6.022;2023-05-07T04:32:55;32.85;;;17.30;;
70725;SDS011;58304;53.104;6.022;2023-05-07T04:35:23;33.75;;;17.38;;
70725;SDS011;58304;53.104;6.022;2023-05-07T04:37:49;31.48;;;17.90;;
70725;SDS011;58304;53.104;6.022;2023-05-07T04:40:16;33.90;;;18.40;;
70725;SDS011;58304;53.104;6.022;2023-05-07T04:42:44;34.20;;;17.50;;
70725;SDS011;58304;53.104;6.022;2023-05-07T04:45:10;36.17;;;18.55;;
70725;SDS011;58304;53.104;6.022;2023-05-07T04:47:37;36.92;;;19.55;;
70725;SDS011;58304;53.104;6.022;2023-05-07T04:50:05;38.10;;;19.58;;
70725;SDS011;58304;53.104;6.022;2023-05-07T04:52:32;38.78;;;19.30;;
70725;SDS011;58304;53.104;6.022;2023-05-07T04:55:08;37.40;;;18.92;;
70725;SDS011;58304;53.104;6.022;2023-05-07T04:57:35;37.58;;;18.67;;
70725;SDS011;58304;53.104;6.022;2023-05-07T05:00:10;37.13;;;19.38;;
70725;SDS011;58304;53.104;6.022;2023-05-07T05:02:39;39.35;;;19.15;;
70725;SDS011;58304;53.104;6.022;2023-05-07T05:05:05;36.33;;;19.92;;
70725;SDS011;58304;53.104;6.022;2023-05-07T05:07:31;35.53;;;18.95;;
70725;SDS011;58304;53.104;6.022;2023-05-07T05:09:57;38.03;;;19.05;;
70725;SDS011;58304;53.104;6.022;2023-05-07T05:12:23;41.97;;;20.05;;
70725;SDS011;58304;53.104;6.022;2023-05-07T05:14:51;38.13;;;19.60;;
70725;SDS011;58304;53.104;6.022;2023-05-07T05:17:18;40.15;;;19.63;;
70725;SDS011;58304;53.104;6.022;2023-05-07T05:19:44;34.80;;;18.83;;
70725;SDS011;58304;53.104;6.022;2023-05-07T05:22:13;44.22;;;20.48;;
70725;SDS011;58304;53.104;6.022;2023-05-07T05:24:38;41.25;;;19.95;;
70725;SDS011;58304;53.104;6.022;2023-05-07T05:27:05;43.00;;;20.35;;
70725;SDS011;58304;53.104;6.022;2023-05-07T05:29:31;38.75;;;19.58;;
70725;SDS011;58304;53.104;6.022;2023-05-07T05:31:58;40.08;;;19.27;;
70725;SDS011;58304;53.104;6.022;2023-05-07T05:34:25;37.33;;;19.17;;
70725;SDS011;58304;53.104;6.022;2023-05-07T05:36:51;40.78;;;19.35;;
70725;SDS011;58304;53.104;6.022;2023-05-07T05:39:16;39.03;;;18.33;;
70725;SDS011;58304;53.104;6.022;2023-05-07T05:41:42;37.05;;;19.42;;
70725;SDS011;58304;53.104;6.022;2023-05-07T05:44:09;35.33;;;18.60;;
70725;SDS011;58304;53.104;6.022;2023-05-07T05:46:35;36.42;;;18.58;;
70725;SDS011;58304;53.104;6.022;2023-05-07T05:49:04;36.10;;;19.13;;
70725;SDS011;58304;53.104;6.022;2023-05-07T05:51:31;35.90;;;18.45;;
70725;SDS011;58304;53.104;6.022;2023-05-07T05:53:57;37.95;;;18.83;;
70725;SDS011;58304;53.104;6.022;2023-05-07T05:56:26;36.72;;;18.52;;
70725;SDS011;58304;53.104;6.022;2023-05-07T05:58:54;34.83;;;18.75;;
70725;SDS011;58304;53.104;6.022;2023-05-07T06:01:40;32.40;;;18.55;;
70725;SDS011;58304;53.104;6.022;2023-05-07T06:04:07;35.42;;;17.65;;
70725;SDS011;58304;53.104;6.022;2023-05-07T06:06:32;34.33;;;17.83;;
70725;SDS011;58304;53.104;6.022;2023-05-07T06:09:07;34.80;;;18.10;;
70725;SDS011;58304;53.104;6.022;2023-05-07T06:11:33;28.75;;;16.58;;
70725;SDS011;58304;53.104;6.022;2023-05-07T06:13:58;33.25;;;17.98;;
70725;SDS011;58304;53.104;6.022;2023-05-07T06:16:28;33.25;;;17.58;;
70725;SDS011;58304;53.104;6.022;2023-05-07T06:18:57;35.25;;;17.80;;
70725;SDS011;58304;53.104;6.022;2023-05-07T06:21:23;30.40;;;17.33;;
70725;SDS011;58304;53.104;6.022;2023-05-07T06:23:48;33.10;;;17.80;;
70725;SDS011;58304;53.104;6.022;2023-05-07T06:26:14;36.42;;;17.77;;
70725;SDS011;58304;53.104;6.022;2023-05-07T06:28:41;33.30;;;17.52;;
70725;SDS011;58304;53.104;6.022;2023-05-07T06:31:28;34.67;;;17.88;;
70725;SDS011;58304;53.104;6.022;2023-05-07T06:33:58;31.52;;;16.48;;
70725;SDS011;58304;53.104;6.022;2023-05-07T06:36:24;30.92;;;17.63;;
70725;SDS011;58304;53.104;6.022;2023-05-07T06:38:50;32.25;;;17.17;;
70725;SDS011;58304;53.104;6.022;2023-05-07T06:41:17;30.15;;;17.45;;
70725;SDS011;58304;53.104;6.022;2023-05-07T06:43:46;34.70;;;17.35;;
70725;SDS011;58304;53.104;6.022;2023-05-07T06:46:12;33.97;;;17.70;;
70725;SDS011;58304;53.104;6.022;2023-05-07T06:48:41;33.58;;;17.50;;
70725;SDS011;58304;53.104;6.022;2023-05-07T06:51:09;31.42;;;16.88;;
70725;SDS011;58304;53.104;6.022;2023-05-07T06:53:35;30.83;;;17.13;;
70725;SDS011;58304;53.104;6.022;2023-05-07T06:56:05;25.92;;;14.98;;
70725;SDS011;58304;53.104;6.022;2023-05-07T06:58:32;30.10;;;16.58;;
70725;SDS011;58304;53.104;6.022;2023-05-07T07:01:01;26.95;;;15.70;;
70725;SDS011;58304;53.104;6.022;2023-05-07T07:03:36;29.02;;;15.45;;
70725;SDS011;58304;53.104;6.022;2023-05-07T07:06:01;28.00;;;15.85;;
70725;SDS011;58304;53.104;6.022;2023-05-07T07:08:28;28.70;;;15.98;;
70725;SDS011;58304;53.104;6.022;2023-05-07T07:10:54;29.08;;;16.52;;
70725;SDS011;58304;53.104;6.022;2023-05-07T07:13:22;27.10;;;14.98;;
70725;SDS011;58304;53.104;6.022;2023-05-07T07:15:51;30.23;;;15.80;;
70725;SDS011;58304;53.104;6.022;2023-05-07T07:18:17;29.08;;;17.35;;
70725;SDS011;58304;53.104;6.022;2023-05-07T07:20:55;26.17;;;15.23;;
70725;SDS011;58304;53.104;6.022;2023-05-07T07:23:21;29.88;;;16.05;;
70725;SDS011;58304;53.104;6.022;2023-05-07T07:25:47;25.65;;;15.23;;
70725;SDS011;58304;53.104;6.022;2023-05-07T07:28:16;27.83;;;15.90;;
70725;SDS011;58304;53.104;6.022;2023-05-07T07:30:43;27.40;;;15.68;;
70725;SDS011;58304;53.104;6.022;2023-05-07T07:33:11;26.90;;;14.77;;
70725;SDS011;58304;53.104;6.022;2023-05-07T07:35:37;27.58;;;15.38;;
70725;SDS011;58304;53.104;6.022;2023-05-07T07:38:02;23.33;;;14.30;;
70725;SDS011;58304;53.104;6.022;2023-05-07T07:40:30;26.83;;;15.40;;
70725;SDS011;58304;53.104;6.022;2023-05-07T07:43:01;26.88;;;15.73;;
70725;SDS011;58304;53.104;6.022;2023-05-07T07:45:27;27.00;;;16.13;;
70725;SDS011;58304;53.104;6.022;2023-05-07T07:47:54;25.92;;;14.68;;
70725;SDS011;58304;53.104;6.022;2023-05-07T07:50:19;29.60;;;15.88;;
70725;SDS011;58304;53.104;6.022;2023-05-07T07:52:45;27.80;;;15.18;;
70725;SDS011;58304;53.104;6.022;2023-05-07T07:55:13;27.90;;;16.30;;
70725;SDS011;58304;53.104;6.022;2023-05-07T07:57:40;27.77;;;15.63;;
70725;SDS011;58304;53.104;6.022;2023-05-07T08:00:07;28.38;;;15.90;;
70725;SDS011;58304;53.104;6.022;2023-05-07T08:02:34;26.55;;;15.48;;
70725;SDS011;58304;53.104;6.022;2023-05-07T08:07:54;25.05;;;14.68;;
70725;SDS011;58304;53.104;6.022;2023-05-07T08:10:25;23.77;;;14.75;;
70725;SDS011;58304;53.104;6.022;2023-05-07T08:12:50;25.35;;;14.90;;
70725;SDS011;58304;53.104;6.022;2023-05-07T08:27:41;26.02;;;14.60;;
70725;SDS011;58304;53.104;6.022;2023-05-07T08:30:10;23.73;;;14.52;;
70725;SDS011;58304;53.104;6.022;2023-05-07T08:35:17;23.77;;;14.63;;
70725;SDS011;58304;53.104;6.022;2023-05-07T08:37:45;27.83;;;15.50;;
70725;SDS011;58304;53.104;6.022;2023-05-07T08:40:12;23.40;;;14.35;;
70725;SDS011;58304;53.104;6.022;2023-05-07T08:42:37;24.63;;;14.65;;
70725;SDS011;58304;53.104;6.022;2023-05-07T08:45:35;26.83;;;14.50;;
70725;SDS011;58304;53.104;6.022;2023-05-07T08:48:05;25.10;;;15.30;;
70725;SDS011;58304;53.104;6.022;2023-05-07T08:50:35;25.25;;;15.07;;
70725;SDS011;58304;53.104;6.022;2023-05-07T08:53:04;23.73;;;14.50;;
70725;SDS011;58304;53.104;6.022;2023-05-07T08:55:36;23.25;;;14.48;;
70725;SDS011;58304;53.104;6.022;2023-05-07T08:58:03;25.65;;;15.27;;
70725;SDS011;58304;53.104;6.022;2023-05-07T09:00:32;23.95;;;13.93;;
70725;SDS011;58304;53.104;6.022;2023-05-07T09:08:26;24.55;;;15.43;;
70725;SDS011;58304;53.104;6.022;2023-05-07T09:10:58;25.48;;;14.52;;
70725;SDS011;58304;53.104;6.022;2023-05-07T09:13:26;23.42;;;14.18;;
70725;SDS011;58304;53.104;6.022;2023-05-07T09:15:52;26.20;;;14.95;;
70725;SDS011;58304;53.104;6.022;2023-05-07T09:18:18;23.90;;;14.60;;
70725;SDS011;58304;53.104;6.022;2023-05-07T09:20:47;23.48;;;14.43;;
70725;SDS011;58304;53.104;6.022;2023-05-07T09:23:16;25.65;;;15.35;;
70725;SDS011;58304;53.104;6.022;2023-05-07T09:25:42;27.25;;;14.15;;
70725;SDS011;58304;53.104;6.022;2023-05-07T09:28:07;23.17;;;14.43;;
70725;SDS011;58304;53.104;6.022;2023-05-07T09:30:36;23.02;;;13.85;;
70725;SDS011;58304;53.104;6.022;2023-05-07T09:33:03;21.75;;;13.77;;
70725;SDS011;58304;53.104;6.022;2023-05-07T09:35:32;24.80;;;13.93;;
70725;SDS011;58304;53.104;6.022;2023-05-07T09:38:01;22.17;;;13.60;;
70725;SDS011;58304;53.104;6.022;2023-05-07T09:40:27;21.05;;;13.98;;
70725;SDS011;58304;53.104;6.022;2023-05-07T09:42:54;24.55;;;14.85;;
70725;SDS011;58304;53.104;6.022;2023-05-07T09:45:29;28.58;;;13.23;;
70725;SDS011;58304;53.104;6.022;2023-05-07T09:48:11;23.45;;;14.45;;
70725;SDS011;58304;53.104;6.022;2023-05-07T09:50:50;21.98;;;13.95;;
70725;SDS011;58304;53.104;6.022;2023-05-07T09:53:23;21.65;;;13.25;;
70725;SDS011;58304;53.104;6.022;2023-05-07T09:55:58;21.88;;;13.48;;
70725;SDS011;58304;53.104;6.022;2023-05-07T09:58:25;22.80;;;13.82;;
70725;SDS011;58304;53.104;6.022;2023-05-07T10:00:52;20.52;;;13.00;;
70725;SDS011;58304;53.104;6.022;2023-05-07T10:03:34;19.95;;;13.27;;
70725;SDS011;58304;53.104;6.022;2023-05-07T10:06:04;22.05;;;14.00;;
70725;SDS011;58304;53.104;6.022;2023-05-07T10:08:33;22.80;;;14.57;;
70725;SDS011;58304;53.104;6.022;2023-05-07T10:11:00;21.60;;;14.27;;
70725;SDS011;58304;53.104;6.022;2023-05-07T10:13:33;21.13;;;14.05;;
70725;SDS011;58304;53.104;6.022;2023-05-07T10:16:09;20.35;;;13.85;;
70725;SDS011;58304;53.104;6.022;2023-05-07T10:18:44;25.00;;;14.50;;
70725;SDS011;58304;53.104;6.022;2023-05-07T10:21:11;22.75;;;14.30;;
70725;SDS011;58304;53.104;6.022;2023-05-07T10:23:59;19.50;;;13.25;;
70725;SDS011;58304;53.104;6.022;2023-05-07T10:26:31;19.88;;;13.15;;
70725;SDS011;58304;53.104;6.022;2023-05-07T10:29:10;21.27;;;13.60;;
70725;SDS011;58304;53.104;6.022;2023-05-07T10:40:20;21.15;;;13.43;;
70725;SDS011;58304;53.104;6.022;2023-05-07T10:42:56;20.98;;;14.35;;
70725;SDS011;58304;53.104;6.022;2023-05-07T11:04:15;20.05;;;13.32;;
70725;SDS011;58304;53.104;6.022;2023-05-07T11:06:45;19.90;;;13.07;;
70725;SDS011;58304;53.104;6.022;2023-05-07T11:10:18;21.70;;;12.73;;
70725;SDS011;58304;53.104;6.022;2023-05-07T11:13:13;21.42;;;13.80;;
70725;SDS011;58304;53.104;6.022;2023-05-07T11:25:40;19.20;;;13.20;;
70725;SDS011;58304;53.104;6.022;2023-05-07T11:28:53;19.48;;;12.68;;
70725;SDS011;58304;53.104;6.022;2023-05-07T11:38:12;19.10;;;12.13;;
70725;SDS011;58304;53.104;6.022;2023-05-07T11:48:27;17.42;;;12.15;;
70725;SDS011;58304;53.104;6.022;2023-05-07T11:51:27;19.85;;;13.57;;
70725;SDS011;58304;53.104;6.022;2023-05-07T12:14:47;14.82;;;10.70;;
70725;SDS011;58304;53.104;6.022;2023-05-07T12:17:24;16.63;;;11.70;;
70725;SDS011;58304;53.104;6.022;2023-05-07T12:20:11;15.23;;;10.20;;
70725;SDS011;58304;53.104;6.022;2023-05-07T12:22:37;16.00;;;11.20;;
70725;SDS011;58304;53.104;6.022;2023-05-07T12:28:05;15.32;;;10.27;;
70725;SDS011;58304;53.104;6.022;2023-05-07T12:30:51;18.30;;;10.40;;
70725;SDS011;58304;53.104;6.022;2023-05-07T12:33:24;16.23;;;10.25;;
70725;SDS011;58304;53.104;6.022;2023-05-07T12:35:54;15.68;;;10.40;;
70725;SDS011;58304;53.104;6.022;2023-05-07T12:38:42;14.27;;;10.13;;
70725;SDS011;58304;53.104;6.022;2023-05-07T12:42:20;16.23;;;10.43;;
70725;SDS011;58304;53.104;6.022;2023-05-07T13:15:31;11.50;;;8.65;;
70725;SDS011;58304;53.104;6.022;2023-05-07T13:21:46;14.48;;;10.32;;
70725;SDS011;58304;53.104;6.022;2023-05-07T13:24:12;13.15;;;9.32;;
70725;SDS011;58304;53.104;6.022;2023-05-07T13:26:38;14.07;;;10.02;;
70725;SDS011;58304;53.104;6.022;2023-05-07T13:29:04;12.73;;;9.23;;
70725;SDS011;58304;53.104;6.022;2023-05-07T13:31:30;11.70;;;8.45;;
70725;SDS011;58304;53.104;6.022;2023-05-07T13:36:34;10.68;;;7.95;;
70725;SDS011;58304;53.104;6.022;2023-05-07T13:39:02;11.23;;;8.55;;
70725;SDS011;58304;53.104;6.022;2023-05-07T13:41:28;12.23;;;8.77;;
70725;SDS011;58304;53.104;6.022;2023-05-07T13:43:55;11.63;;;8.95;;
70725;SDS011;58304;53.104;6.022;2023-05-07T13:46:21;12.10;;;8.95;;
70725;SDS011;58304;53.104;6.022;2023-05-07T13:48:47;12.55;;;8.50;;
70725;SDS011;58304;53.104;6.022;2023-05-07T13:51:12;12.52;;;9.07;;
70725;SDS011;58304;53.104;6.022;2023-05-07T13:53:38;13.43;;;9.10;;
70725;SDS011;58304;53.104;6.022;2023-05-07T13:56:04;12.45;;;8.77;;
70725;SDS011;58304;53.104;6.022;2023-05-07T13:58:30;11.20;;;7.88;;
70725;SDS011;58304;53.104;6.022;2023-05-07T14:00:55;10.55;;;7.68;;
70725;SDS011;58304;53.104;6.022;2023-05-07T14:03:21;12.40;;;8.70;;
70725;SDS011;58304;53.104;6.022;2023-05-07T14:05:49;13.95;;;8.98;;
70725;SDS011;58304;53.104;6.022;2023-05-07T14:08:25;14.88;;;9.93;;
70725;SDS011;58304;53.104;6.022;2023-05-07T14:10:51;14.05;;;9.40;;
70725;SDS011;58304;53.104;6.022;2023-05-07T14:13:17;14.13;;;9.43;;
70725;SDS011;58304;53.104;6.022;2023-05-07T14:15:42;11.25;;;8.40;;
70725;SDS011;58304;53.104;6.022;2023-05-07T14:18:11;11.10;;;8.57;;
70725;SDS011;58304;53.104;6.022;2023-05-07T14:20:38;12.50;;;8.80;;
70725;SDS011;58304;53.104;6.022;2023-05-07T14:23:03;12.65;;;9.40;;
70725;SDS011;58304;53.104;6.022;2023-05-07T14:25:29;13.05;;;9.73;;
70725;SDS011;58304;53.104;6.022;2023-05-07T14:27:55;14.98;;;9.82;;
70725;SDS011;58304;53.104;6.022;2023-05-07T14:30:21;13.27;;;9.48;;
70725;SDS011;58304;53.104;6.022;2023-05-07T14:32:49;12.77;;;9.23;;
70725;SDS011;58304;53.104;6.022;2023-05-07T14:35:15;12.13;;;9.43;;
70725;SDS011;58304;53.104;6.022;2023-05-07T14:37:42;13.10;;;10.25;;
70725;SDS011;58304;53.104;6.022;2023-05-07T14:40:08;13.82;;;10.10;;
70725;SDS011;58304;53.104;6.022;2023-05-07T14:42:37;12.88;;;9.23;;
70725;SDS011;58304;53.104;6.022;2023-05-07T14:45:03;13.50;;;10.23;;
70725;SDS011;58304;53.104;6.022;2023-05-07T14:47:29;14.07;;;10.40;;
70725;SDS011;58304;53.104;6.022;2023-05-07T14:49:55;14.52;;;10.23;;
70725;SDS011;58304;53.104;6.022;2023-05-07T14:52:22;15.85;;;10.60;;
70725;SDS011;58304;53.104;6.022;2023-05-07T14:54:48;15.50;;;10.80;;
70725;SDS011;58304;53.104;6.022;2023-05-07T14:57:13;14.32;;;11.07;;
70725;SDS011;58304;53.104;6.022;2023-05-07T14:59:43;13.75;;;10.43;;
70725;SDS011;58304;53.104;6.022;2023-05-07T15:02:12;15.00;;;11.00;;
70725;SDS011;58304;53.104;6.022;2023-05-07T15:04:38;14.63;;;11.43;;
70725;SDS011;58304;53.104;6.022;2023-05-07T15:07:11;14.50;;;11.30;;
70725;SDS011;58304;53.104;6.022;2023-05-07T15:09:43;15.98;;;11.45;;
70725;SDS011;58304;53.104;6.022;2023-05-07T15:12:09;14.20;;;10.73;;
70725;SDS011;58304;53.104;6.022;2023-05-07T15:14:34;13.82;;;10.13;;
70725;SDS011;58304;53.104;6.022;2023-05-07T15:17:06;13.57;;;10.27;;
70725;SDS011;58304;53.104;6.022;2023-05-07T15:19:33;13.48;;;10.25;;
70725;SDS011;58304;53.104;6.022;2023-05-07T15:21:59;13.30;;;9.85;;
70725;SDS011;58304;53.104;6.022;2023-05-07T15:24:29;12.85;;;9.75;;
70725;SDS011;58304;53.104;6.022;2023-05-07T15:26:55;15.68;;;11.10;;
70725;SDS011;58304;53.104;6.022;2023-05-07T15:29:21;12.93;;;10.02;;
70725;SDS011;58304;53.104;6.022;2023-05-07T15:31:49;13.20;;;10.35;;
70725;SDS011;58304;53.104;6.022;2023-05-07T15:44:15;10.65;;;8.45;;
70725;SDS011;58304;53.104;6.022;2023-05-07T15:46:44;11.60;;;9.00;;
70725;SDS011;58304;53.104;6.022;2023-05-07T16:00:55;12.70;;;9.00;;
70725;SDS011;58304;53.104;6.022;2023-05-07T16:03:35;12.90;;;8.32;;
70725;SDS011;58304;53.104;6.022;2023-05-07T16:12:23;11.60;;;8.60;;
70725;SDS011;58304;53.104;6.022;2023-05-07T17:31:41;9.45;;;7.25;;
70725;SDS011;58304;53.104;6.022;2023-05-07T17:34:09;9.13;;;7.30;;
70725;SDS011;58304;53.104;6.022;2023-05-07T17:36:40;9.63;;;7.57;;
70725;SDS011;58304;53.104;6.022;2023-05-07T17:39:12;10.63;;;8.05;;
70725;SDS011;58304;53.104;6.022;2023-05-07T17:45:12;9.00;;;7.43;;
70725;SDS011;58304;53.104;6.022;2023-05-07T17:47:37;11.02;;;7.30;;
70725;SDS011;58304;53.104;6.022;2023-05-07T17:50:11;11.40;;;7.57;;
70725;SDS011;58304;53.104;6.022;2023-05-07T20:31:53;16.98;;;11.80;;
70725;SDS011;58304;53.104;6.022;2023-05-07T20:34:30;15.18;;;10.75;;
70725;SDS011;58304;53.104;6.022;2023-05-07T20:43:42;16.92;;;11.23;;
70725;SDS011;58304;53.104;6.022;2023-05-07T20:46:34;19.02;;;11.10;;
70725;SDS011;58304;53.104;6.022;2023-05-07T21:38:54;14.35;;;10.30;;
70725;SDS011;58304;53.104;6.022;2023-05-07T21:54:39;14.18;;;10.05;;
70725;SDS011;58304;53.104;6.022;2023-05-07T21:57:37;14.93;;;9.45;;
70725;SDS011;58304;53.104;6.022;2023-05-07T22:00:08;13.65;;;9.73;;
70725;SDS011;58304;53.104;6.022;2023-05-07T22:02:45;13.75;;;9.60;;
70725;SDS011;58304;53.104;6.022;2023-05-07T22:15:04;14.52;;;10.15;;
70725;SDS011;58304;53.104;6.022;2023-05-07T22:17:36;15.55;;;9.90;;
70725;SDS011;58304;53.104;6.022;2023-05-07T22:22:57;13.13;;;9.60;;
